<?xml version="1.0" encoding="UTF-8" standalone="no" ?>
<gpx xmlns="http://www.topografix.com/GPX/1/1" xmlns:xsi="http://www.w3.org/2001/XMLSchema-instance" xsi:schemaLocation="http://www.topografix.com/GPX/1/1 http://www.topografix.com/GPX/1/1/gpx.xsd" version="1.1" creator="VisuGPX - https://www.visugpx.com">
  <metadata>
    <name>La Sauvetat-de-Savères - 9.5 km - 01-09-2022</name>
  </metadata>
  <trk>
    <name><![CDATA[La Sauvetat-de-Savères - 9.5 km - 01-09-2022]]></name>
    <extensions>
      <line xmlns="http://www.topografix.com/GPX/gpx_style/0/2">
        <color>0000FF</color>
        <width>4</width>
      </line>
    </extensions>
    <trkseg>
      <trkpt lat="44.22706" lon="0.79941">
        <ele>70.7</ele>
        <time>2022-09-01T09:02:03+02:00</time>
      </trkpt>
      <trkpt lat="44.22693" lon="0.79937">
        <ele>71.3</ele>
        <time>2022-09-01T09:02:16+02:00</time>
      </trkpt>
      <trkpt lat="44.22679" lon="0.79928">
        <ele>71.8</ele>
        <time>2022-09-01T09:02:34+02:00</time>
      </trkpt>
      <trkpt lat="44.22665" lon="0.79924">
        <ele>72</ele>
        <time>2022-09-01T09:02:49+02:00</time>
      </trkpt>
      <trkpt lat="44.22652" lon="0.79933">
        <ele>71.7</ele>
        <time>2022-09-01T09:03:02+02:00</time>
      </trkpt>
      <trkpt lat="44.2264" lon="0.79922">
        <ele>71.8</ele>
        <time>2022-09-01T09:03:18+02:00</time>
      </trkpt>
      <trkpt lat="44.22637" lon="0.79903">
        <ele>72</ele>
        <time>2022-09-01T09:03:33+02:00</time>
      </trkpt>
      <trkpt lat="44.22625" lon="0.79893">
        <ele>71.9</ele>
        <time>2022-09-01T09:03:48+02:00</time>
      </trkpt>
      <trkpt lat="44.22628" lon="0.79872">
        <ele>72</ele>
        <time>2022-09-01T09:04:15+02:00</time>
      </trkpt>
      <trkpt lat="44.22636" lon="0.79856">
        <ele>72.2</ele>
        <time>2022-09-01T09:04:29+02:00</time>
      </trkpt>
      <trkpt lat="44.22642" lon="0.79838">
        <ele>72.7</ele>
        <time>2022-09-01T09:04:44+02:00</time>
      </trkpt>
      <trkpt lat="44.22643" lon="0.79819">
        <ele>72.9</ele>
        <time>2022-09-01T09:05:01+02:00</time>
      </trkpt>
      <trkpt lat="44.22647" lon="0.798">
        <ele>73</ele>
        <time>2022-09-01T09:05:16+02:00</time>
      </trkpt>
      <trkpt lat="44.22652" lon="0.79782">
        <ele>73</ele>
        <time>2022-09-01T09:05:30+02:00</time>
      </trkpt>
      <trkpt lat="44.22657" lon="0.79764">
        <ele>73.5</ele>
        <time>2022-09-01T09:05:41+02:00</time>
      </trkpt>
      <trkpt lat="44.22661" lon="0.79745">
        <ele>74</ele>
        <time>2022-09-01T09:05:53+02:00</time>
      </trkpt>
      <trkpt lat="44.22671" lon="0.79732">
        <ele>74.1</ele>
        <time>2022-09-01T09:06:06+02:00</time>
      </trkpt>
      <trkpt lat="44.22685" lon="0.79736">
        <ele>74.3</ele>
        <time>2022-09-01T09:06:19+02:00</time>
      </trkpt>
      <trkpt lat="44.22698" lon="0.7974">
        <ele>74.3</ele>
        <time>2022-09-01T09:06:34+02:00</time>
      </trkpt>
      <trkpt lat="44.22712" lon="0.79745">
        <ele>73.6</ele>
        <time>2022-09-01T09:06:46+02:00</time>
      </trkpt>
      <trkpt lat="44.22726" lon="0.79752">
        <ele>73</ele>
        <time>2022-09-01T09:06:58+02:00</time>
      </trkpt>
      <trkpt lat="44.22736" lon="0.79765">
        <ele>73</ele>
        <time>2022-09-01T09:07:09+02:00</time>
      </trkpt>
      <trkpt lat="44.22747" lon="0.79778">
        <ele>72.2</ele>
        <time>2022-09-01T09:07:21+02:00</time>
      </trkpt>
      <trkpt lat="44.22748" lon="0.79797">
        <ele>72.1</ele>
        <time>2022-09-01T09:07:32+02:00</time>
      </trkpt>
      <trkpt lat="44.22744" lon="0.79815">
        <ele>72.5</ele>
        <time>2022-09-01T09:07:44+02:00</time>
      </trkpt>
      <trkpt lat="44.22738" lon="0.79834">
        <ele>73</ele>
        <time>2022-09-01T09:07:56+02:00</time>
      </trkpt>
      <trkpt lat="44.22746" lon="0.79851">
        <ele>72.4</ele>
        <time>2022-09-01T09:08:16+02:00</time>
      </trkpt>
      <trkpt lat="44.22758" lon="0.79859">
        <ele>72.3</ele>
        <time>2022-09-01T09:08:31+02:00</time>
      </trkpt>
      <trkpt lat="44.22771" lon="0.79868">
        <ele>72.5</ele>
        <time>2022-09-01T09:08:56+02:00</time>
      </trkpt>
      <trkpt lat="44.22784" lon="0.79874">
        <ele>73</ele>
        <time>2022-09-01T09:09:06+02:00</time>
      </trkpt>
      <trkpt lat="44.22798" lon="0.79871">
        <ele>74.3</ele>
        <time>2022-09-01T09:09:19+02:00</time>
      </trkpt>
      <trkpt lat="44.22807" lon="0.79857">
        <ele>76.1</ele>
        <time>2022-09-01T09:09:38+02:00</time>
      </trkpt>
      <trkpt lat="44.22817" lon="0.79841">
        <ele>77.2</ele>
        <time>2022-09-01T09:09:52+02:00</time>
      </trkpt>
      <trkpt lat="44.22827" lon="0.79827">
        <ele>78.9</ele>
        <time>2022-09-01T09:10:06+02:00</time>
      </trkpt>
      <trkpt lat="44.22837" lon="0.79814">
        <ele>80.6</ele>
        <time>2022-09-01T09:10:20+02:00</time>
      </trkpt>
      <trkpt lat="44.2285" lon="0.79803">
        <ele>82.7</ele>
        <time>2022-09-01T09:10:33+02:00</time>
      </trkpt>
      <trkpt lat="44.2286" lon="0.79789">
        <ele>83.6</ele>
        <time>2022-09-01T09:10:45+02:00</time>
      </trkpt>
      <trkpt lat="44.22871" lon="0.79776">
        <ele>85.2</ele>
        <time>2022-09-01T09:10:55+02:00</time>
      </trkpt>
      <trkpt lat="44.22878" lon="0.79759">
        <ele>85.3</ele>
        <time>2022-09-01T09:11:08+02:00</time>
      </trkpt>
      <trkpt lat="44.22888" lon="0.79746">
        <ele>86.4</ele>
        <time>2022-09-01T09:11:20+02:00</time>
      </trkpt>
      <trkpt lat="44.22895" lon="0.79729">
        <ele>86.8</ele>
        <time>2022-09-01T09:11:38+02:00</time>
      </trkpt>
      <trkpt lat="44.22905" lon="0.79715">
        <ele>87.9</ele>
        <time>2022-09-01T09:11:53+02:00</time>
      </trkpt>
      <trkpt lat="44.22912" lon="0.79697">
        <ele>88.5</ele>
        <time>2022-09-01T09:12:03+02:00</time>
      </trkpt>
      <trkpt lat="44.22924" lon="0.79687">
        <ele>90.1</ele>
        <time>2022-09-01T09:12:11+02:00</time>
      </trkpt>
      <trkpt lat="44.22932" lon="0.79671">
        <ele>89.8</ele>
        <time>2022-09-01T09:12:25+02:00</time>
      </trkpt>
      <trkpt lat="44.22944" lon="0.79658">
        <ele>90.8</ele>
        <time>2022-09-01T09:12:37+02:00</time>
      </trkpt>
      <trkpt lat="44.22954" lon="0.79645">
        <ele>91.1</ele>
        <time>2022-09-01T09:12:47+02:00</time>
      </trkpt>
      <trkpt lat="44.22967" lon="0.79638">
        <ele>92.2</ele>
        <time>2022-09-01T09:12:56+02:00</time>
      </trkpt>
      <trkpt lat="44.22976" lon="0.79625">
        <ele>92.3</ele>
        <time>2022-09-01T09:13:10+02:00</time>
      </trkpt>
      <trkpt lat="44.22977" lon="0.79606">
        <ele>90.3</ele>
        <time>2022-09-01T09:13:25+02:00</time>
      </trkpt>
      <trkpt lat="44.22989" lon="0.79596">
        <ele>91.7</ele>
        <time>2022-09-01T09:13:35+02:00</time>
      </trkpt>
      <trkpt lat="44.22998" lon="0.79581">
        <ele>92</ele>
        <time>2022-09-01T09:13:45+02:00</time>
      </trkpt>
      <trkpt lat="44.23006" lon="0.79565">
        <ele>90.2</ele>
        <time>2022-09-01T09:13:58+02:00</time>
      </trkpt>
      <trkpt lat="44.23017" lon="0.79552">
        <ele>90.1</ele>
        <time>2022-09-01T09:14:03+02:00</time>
      </trkpt>
      <trkpt lat="44.23028" lon="0.79538">
        <ele>89.9</ele>
        <time>2022-09-01T09:14:14+02:00</time>
      </trkpt>
      <trkpt lat="44.23039" lon="0.79525">
        <ele>89.2</ele>
        <time>2022-09-01T09:14:25+02:00</time>
      </trkpt>
      <trkpt lat="44.23053" lon="0.79516">
        <ele>89.8</ele>
        <time>2022-09-01T09:14:35+02:00</time>
      </trkpt>
      <trkpt lat="44.23063" lon="0.79503">
        <ele>89.3</ele>
        <time>2022-09-01T09:14:48+02:00</time>
      </trkpt>
      <trkpt lat="44.23072" lon="0.7949">
        <ele>88.6</ele>
        <time>2022-09-01T09:15:01+02:00</time>
      </trkpt>
      <trkpt lat="44.23081" lon="0.79476">
        <ele>88.1</ele>
        <time>2022-09-01T09:15:13+02:00</time>
      </trkpt>
      <trkpt lat="44.23092" lon="0.79461">
        <ele>86.8</ele>
        <time>2022-09-01T09:15:26+02:00</time>
      </trkpt>
      <trkpt lat="44.23102" lon="0.79448">
        <ele>86.1</ele>
        <time>2022-09-01T09:15:38+02:00</time>
      </trkpt>
      <trkpt lat="44.23112" lon="0.79433">
        <ele>85</ele>
        <time>2022-09-01T09:15:52+02:00</time>
      </trkpt>
      <trkpt lat="44.23124" lon="0.79422">
        <ele>84.7</ele>
        <time>2022-09-01T09:16:05+02:00</time>
      </trkpt>
      <trkpt lat="44.23136" lon="0.79411">
        <ele>85</ele>
        <time>2022-09-01T09:16:17+02:00</time>
      </trkpt>
      <trkpt lat="44.23129" lon="0.79394">
        <ele>83</ele>
        <time>2022-09-01T09:16:56+02:00</time>
      </trkpt>
      <trkpt lat="44.23115" lon="0.79389">
        <ele>82.1</ele>
        <time>2022-09-01T09:17:08+02:00</time>
      </trkpt>
      <trkpt lat="44.23125" lon="0.79376">
        <ele>82</ele>
        <time>2022-09-01T09:17:41+02:00</time>
      </trkpt>
      <trkpt lat="44.23133" lon="0.7936">
        <ele>81.3</ele>
        <time>2022-09-01T09:17:56+02:00</time>
      </trkpt>
      <trkpt lat="44.23138" lon="0.79342">
        <ele>82.4</ele>
        <time>2022-09-01T09:18:14+02:00</time>
      </trkpt>
      <trkpt lat="44.2314" lon="0.79321">
        <ele>83.1</ele>
        <time>2022-09-01T09:18:28+02:00</time>
      </trkpt>
      <trkpt lat="44.23142" lon="0.79303">
        <ele>83.4</ele>
        <time>2022-09-01T09:18:37+02:00</time>
      </trkpt>
      <trkpt lat="44.23143" lon="0.79283">
        <ele>84.3</ele>
        <time>2022-09-01T09:18:49+02:00</time>
      </trkpt>
      <trkpt lat="44.23142" lon="0.79263">
        <ele>84.9</ele>
        <time>2022-09-01T09:19:02+02:00</time>
      </trkpt>
      <trkpt lat="44.23139" lon="0.79243">
        <ele>85.3</ele>
        <time>2022-09-01T09:19:15+02:00</time>
      </trkpt>
      <trkpt lat="44.23141" lon="0.79224">
        <ele>86.1</ele>
        <time>2022-09-01T09:19:28+02:00</time>
      </trkpt>
      <trkpt lat="44.23143" lon="0.79205">
        <ele>86.9</ele>
        <time>2022-09-01T09:19:39+02:00</time>
      </trkpt>
      <trkpt lat="44.23144" lon="0.79186">
        <ele>87.4</ele>
        <time>2022-09-01T09:19:50+02:00</time>
      </trkpt>
      <trkpt lat="44.23143" lon="0.79167">
        <ele>87.3</ele>
        <time>2022-09-01T09:20:03+02:00</time>
      </trkpt>
      <trkpt lat="44.23144" lon="0.79147">
        <ele>88.1</ele>
        <time>2022-09-01T09:20:14+02:00</time>
      </trkpt>
      <trkpt lat="44.23144" lon="0.79128">
        <ele>88.4</ele>
        <time>2022-09-01T09:20:25+02:00</time>
      </trkpt>
      <trkpt lat="44.23144" lon="0.79108">
        <ele>88.4</ele>
        <time>2022-09-01T09:20:36+02:00</time>
      </trkpt>
      <trkpt lat="44.23144" lon="0.79089">
        <ele>88.5</ele>
        <time>2022-09-01T09:20:48+02:00</time>
      </trkpt>
      <trkpt lat="44.23144" lon="0.7907">
        <ele>89.1</ele>
        <time>2022-09-01T09:20:59+02:00</time>
      </trkpt>
      <trkpt lat="44.23151" lon="0.79052">
        <ele>90.3</ele>
        <time>2022-09-01T09:21:10+02:00</time>
      </trkpt>
      <trkpt lat="44.23158" lon="0.79035">
        <ele>91.5</ele>
        <time>2022-09-01T09:21:23+02:00</time>
      </trkpt>
      <trkpt lat="44.23164" lon="0.79018">
        <ele>92.7</ele>
        <time>2022-09-01T09:21:36+02:00</time>
      </trkpt>
      <trkpt lat="44.23173" lon="0.79003">
        <ele>95.1</ele>
        <time>2022-09-01T09:21:50+02:00</time>
      </trkpt>
      <trkpt lat="44.23181" lon="0.78987">
        <ele>96.6</ele>
        <time>2022-09-01T09:22:01+02:00</time>
      </trkpt>
      <trkpt lat="44.23189" lon="0.78971">
        <ele>96.7</ele>
        <time>2022-09-01T09:22:11+02:00</time>
      </trkpt>
      <trkpt lat="44.23193" lon="0.78951">
        <ele>96.2</ele>
        <time>2022-09-01T09:22:19+02:00</time>
      </trkpt>
      <trkpt lat="44.23198" lon="0.78933">
        <ele>95.2</ele>
        <time>2022-09-01T09:22:35+02:00</time>
      </trkpt>
      <trkpt lat="44.2321" lon="0.78922">
        <ele>95.3</ele>
        <time>2022-09-01T09:22:47+02:00</time>
      </trkpt>
      <trkpt lat="44.23219" lon="0.78906">
        <ele>95.4</ele>
        <time>2022-09-01T09:22:59+02:00</time>
      </trkpt>
      <trkpt lat="44.2323" lon="0.78896">
        <ele>95.9</ele>
        <time>2022-09-01T09:23:13+02:00</time>
      </trkpt>
      <trkpt lat="44.23238" lon="0.7888">
        <ele>96.3</ele>
        <time>2022-09-01T09:23:26+02:00</time>
      </trkpt>
      <trkpt lat="44.23246" lon="0.78864">
        <ele>96.8</ele>
        <time>2022-09-01T09:23:39+02:00</time>
      </trkpt>
      <trkpt lat="44.23258" lon="0.78852">
        <ele>98</ele>
        <time>2022-09-01T09:23:47+02:00</time>
      </trkpt>
      <trkpt lat="44.23269" lon="0.78841">
        <ele>98.8</ele>
        <time>2022-09-01T09:23:55+02:00</time>
      </trkpt>
      <trkpt lat="44.23273" lon="0.78822">
        <ele>99.5</ele>
        <time>2022-09-01T09:24:33+02:00</time>
      </trkpt>
      <trkpt lat="44.23284" lon="0.7881">
        <ele>100.3</ele>
        <time>2022-09-01T09:24:42+02:00</time>
      </trkpt>
      <trkpt lat="44.23295" lon="0.78797">
        <ele>101.6</ele>
        <time>2022-09-01T09:24:53+02:00</time>
      </trkpt>
      <trkpt lat="44.23309" lon="0.7879">
        <ele>102.2</ele>
        <time>2022-09-01T09:25:04+02:00</time>
      </trkpt>
      <trkpt lat="44.23318" lon="0.78776">
        <ele>103.2</ele>
        <time>2022-09-01T09:25:14+02:00</time>
      </trkpt>
      <trkpt lat="44.23333" lon="0.78775">
        <ele>104.3</ele>
        <time>2022-09-01T09:25:29+02:00</time>
      </trkpt>
      <trkpt lat="44.23345" lon="0.78786">
        <ele>106.6</ele>
        <time>2022-09-01T09:25:42+02:00</time>
      </trkpt>
      <trkpt lat="44.23353" lon="0.78802">
        <ele>107.7</ele>
        <time>2022-09-01T09:25:55+02:00</time>
      </trkpt>
      <trkpt lat="44.23364" lon="0.78815">
        <ele>110.1</ele>
        <time>2022-09-01T09:26:10+02:00</time>
      </trkpt>
      <trkpt lat="44.23377" lon="0.7882">
        <ele>113</ele>
        <time>2022-09-01T09:26:27+02:00</time>
      </trkpt>
      <trkpt lat="44.2339" lon="0.78828">
        <ele>116</ele>
        <time>2022-09-01T09:26:48+02:00</time>
      </trkpt>
      <trkpt lat="44.23401" lon="0.78817">
        <ele>117.4</ele>
        <time>2022-09-01T09:27:34+02:00</time>
      </trkpt>
      <trkpt lat="44.2341" lon="0.78803">
        <ele>116.7</ele>
        <time>2022-09-01T09:27:43+02:00</time>
      </trkpt>
      <trkpt lat="44.23419" lon="0.78787">
        <ele>115.5</ele>
        <time>2022-09-01T09:27:54+02:00</time>
      </trkpt>
      <trkpt lat="44.23428" lon="0.78772">
        <ele>114.2</ele>
        <time>2022-09-01T09:28:05+02:00</time>
      </trkpt>
      <trkpt lat="44.23437" lon="0.78756">
        <ele>113.1</ele>
        <time>2022-09-01T09:28:18+02:00</time>
      </trkpt>
      <trkpt lat="44.23451" lon="0.78753">
        <ele>114.1</ele>
        <time>2022-09-01T09:28:32+02:00</time>
      </trkpt>
      <trkpt lat="44.23465" lon="0.78757">
        <ele>116.4</ele>
        <time>2022-09-01T09:28:44+02:00</time>
      </trkpt>
      <trkpt lat="44.23479" lon="0.78755">
        <ele>118.2</ele>
        <time>2022-09-01T09:29:00+02:00</time>
      </trkpt>
      <trkpt lat="44.23493" lon="0.78757">
        <ele>121.1</ele>
        <time>2022-09-01T09:29:14+02:00</time>
      </trkpt>
      <trkpt lat="44.23506" lon="0.78753">
        <ele>122.4</ele>
        <time>2022-09-01T09:29:28+02:00</time>
      </trkpt>
      <trkpt lat="44.23519" lon="0.78746">
        <ele>123.5</ele>
        <time>2022-09-01T09:29:41+02:00</time>
      </trkpt>
      <trkpt lat="44.23532" lon="0.78737">
        <ele>124.8</ele>
        <time>2022-09-01T09:29:54+02:00</time>
      </trkpt>
      <trkpt lat="44.23545" lon="0.78725">
        <ele>126.1</ele>
        <time>2022-09-01T09:30:23+02:00</time>
      </trkpt>
      <trkpt lat="44.23555" lon="0.78712">
        <ele>127.5</ele>
        <time>2022-09-01T09:30:35+02:00</time>
      </trkpt>
      <trkpt lat="44.23566" lon="0.787">
        <ele>128.6</ele>
        <time>2022-09-01T09:31:44+02:00</time>
      </trkpt>
      <trkpt lat="44.23577" lon="0.78688">
        <ele>130.7</ele>
        <time>2022-09-01T09:32:00+02:00</time>
      </trkpt>
      <trkpt lat="44.23588" lon="0.78675">
        <ele>133.2</ele>
        <time>2022-09-01T09:32:15+02:00</time>
      </trkpt>
      <trkpt lat="44.23597" lon="0.78661">
        <ele>135.7</ele>
        <time>2022-09-01T09:32:28+02:00</time>
      </trkpt>
      <trkpt lat="44.23604" lon="0.78644">
        <ele>138.2</ele>
        <time>2022-09-01T09:32:43+02:00</time>
      </trkpt>
      <trkpt lat="44.2361" lon="0.78627">
        <ele>140.2</ele>
        <time>2022-09-01T09:33:00+02:00</time>
      </trkpt>
      <trkpt lat="44.23616" lon="0.78608">
        <ele>143.6</ele>
        <time>2022-09-01T09:33:19+02:00</time>
      </trkpt>
      <trkpt lat="44.23629" lon="0.78605">
        <ele>146.7</ele>
        <time>2022-09-01T09:33:39+02:00</time>
      </trkpt>
      <trkpt lat="44.23643" lon="0.78609">
        <ele>147.9</ele>
        <time>2022-09-01T09:33:52+02:00</time>
      </trkpt>
      <trkpt lat="44.23657" lon="0.78613">
        <ele>150.2</ele>
        <time>2022-09-01T09:34:09+02:00</time>
      </trkpt>
      <trkpt lat="44.23671" lon="0.78618">
        <ele>153.2</ele>
        <time>2022-09-01T09:34:28+02:00</time>
      </trkpt>
      <trkpt lat="44.23669" lon="0.78598">
        <ele>156.7</ele>
        <time>2022-09-01T09:35:42+02:00</time>
      </trkpt>
      <trkpt lat="44.23656" lon="0.78589">
        <ele>156.7</ele>
        <time>2022-09-01T09:35:56+02:00</time>
      </trkpt>
      <trkpt lat="44.23655" lon="0.78585">
        <ele>157.9</ele>
        <time>2022-09-01T09:36:56+02:00</time>
      </trkpt>
      <trkpt lat="44.23646" lon="0.78576">
        <ele>157.9</ele>
        <time>2022-09-01T09:37:16+02:00</time>
      </trkpt>
      <trkpt lat="44.23642" lon="0.78575">
        <ele>157.5</ele>
        <time>2022-09-01T09:37:43+02:00</time>
      </trkpt>
      <trkpt lat="44.23636" lon="0.78565">
        <ele>158.4</ele>
        <time>2022-09-01T09:43:22+02:00</time>
      </trkpt>
      <trkpt lat="44.23626" lon="0.78557">
        <ele>158.8</ele>
        <time>2022-09-01T09:44:45+02:00</time>
      </trkpt>
      <trkpt lat="44.23614" lon="0.78545">
        <ele>158.9</ele>
        <time>2022-09-01T09:44:56+02:00</time>
      </trkpt>
      <trkpt lat="44.23603" lon="0.78534">
        <ele>159.9</ele>
        <time>2022-09-01T09:45:05+02:00</time>
      </trkpt>
      <trkpt lat="44.2359" lon="0.78523">
        <ele>160.8</ele>
        <time>2022-09-01T09:45:18+02:00</time>
      </trkpt>
      <trkpt lat="44.23578" lon="0.78513">
        <ele>161.1</ele>
        <time>2022-09-01T09:45:30+02:00</time>
      </trkpt>
      <trkpt lat="44.23564" lon="0.78507">
        <ele>161.5</ele>
        <time>2022-09-01T09:45:43+02:00</time>
      </trkpt>
      <trkpt lat="44.23551" lon="0.785">
        <ele>162.2</ele>
        <time>2022-09-01T09:45:54+02:00</time>
      </trkpt>
      <trkpt lat="44.23537" lon="0.78492">
        <ele>162.9</ele>
        <time>2022-09-01T09:46:07+02:00</time>
      </trkpt>
      <trkpt lat="44.23524" lon="0.78487">
        <ele>163.5</ele>
        <time>2022-09-01T09:46:19+02:00</time>
      </trkpt>
      <trkpt lat="44.2351" lon="0.78481">
        <ele>163.7</ele>
        <time>2022-09-01T09:46:31+02:00</time>
      </trkpt>
      <trkpt lat="44.23497" lon="0.78471">
        <ele>164.1</ele>
        <time>2022-09-01T09:46:42+02:00</time>
      </trkpt>
      <trkpt lat="44.23484" lon="0.78464">
        <ele>164.6</ele>
        <time>2022-09-01T09:46:54+02:00</time>
      </trkpt>
      <trkpt lat="44.23472" lon="0.78455">
        <ele>165.2</ele>
        <time>2022-09-01T09:47:07+02:00</time>
      </trkpt>
      <trkpt lat="44.23459" lon="0.78448">
        <ele>165.2</ele>
        <time>2022-09-01T09:47:19+02:00</time>
      </trkpt>
      <trkpt lat="44.23446" lon="0.78438">
        <ele>165.3</ele>
        <time>2022-09-01T09:47:31+02:00</time>
      </trkpt>
      <trkpt lat="44.23434" lon="0.78431">
        <ele>165.1</ele>
        <time>2022-09-01T09:47:43+02:00</time>
      </trkpt>
      <trkpt lat="44.23421" lon="0.78422">
        <ele>165</ele>
        <time>2022-09-01T09:47:56+02:00</time>
      </trkpt>
      <trkpt lat="44.2341" lon="0.78412">
        <ele>164.7</ele>
        <time>2022-09-01T09:48:07+02:00</time>
      </trkpt>
      <trkpt lat="44.23398" lon="0.78402">
        <ele>164.2</ele>
        <time>2022-09-01T09:48:19+02:00</time>
      </trkpt>
      <trkpt lat="44.23386" lon="0.7839">
        <ele>163.7</ele>
        <time>2022-09-01T09:48:32+02:00</time>
      </trkpt>
      <trkpt lat="44.23375" lon="0.7838">
        <ele>162.6</ele>
        <time>2022-09-01T09:48:43+02:00</time>
      </trkpt>
      <trkpt lat="44.23363" lon="0.78369">
        <ele>161.9</ele>
        <time>2022-09-01T09:48:55+02:00</time>
      </trkpt>
      <trkpt lat="44.23352" lon="0.78357">
        <ele>161.9</ele>
        <time>2022-09-01T09:49:07+02:00</time>
      </trkpt>
      <trkpt lat="44.23339" lon="0.78348">
        <ele>161.8</ele>
        <time>2022-09-01T09:49:18+02:00</time>
      </trkpt>
      <trkpt lat="44.23328" lon="0.78337">
        <ele>161.5</ele>
        <time>2022-09-01T09:49:29+02:00</time>
      </trkpt>
      <trkpt lat="44.23318" lon="0.78325">
        <ele>161.3</ele>
        <time>2022-09-01T09:49:39+02:00</time>
      </trkpt>
      <trkpt lat="44.23306" lon="0.78314">
        <ele>160.7</ele>
        <time>2022-09-01T09:49:51+02:00</time>
      </trkpt>
      <trkpt lat="44.23292" lon="0.78307">
        <ele>159.9</ele>
        <time>2022-09-01T09:50:03+02:00</time>
      </trkpt>
      <trkpt lat="44.2328" lon="0.783">
        <ele>159.6</ele>
        <time>2022-09-01T09:50:14+02:00</time>
      </trkpt>
      <trkpt lat="44.23265" lon="0.78295">
        <ele>159</ele>
        <time>2022-09-01T09:50:25+02:00</time>
      </trkpt>
      <trkpt lat="44.23251" lon="0.78291">
        <ele>158.6</ele>
        <time>2022-09-01T09:50:36+02:00</time>
      </trkpt>
      <trkpt lat="44.23236" lon="0.78288">
        <ele>159.2</ele>
        <time>2022-09-01T09:50:47+02:00</time>
      </trkpt>
      <trkpt lat="44.23223" lon="0.78288">
        <ele>159.5</ele>
        <time>2022-09-01T09:50:58+02:00</time>
      </trkpt>
      <trkpt lat="44.23209" lon="0.78287">
        <ele>159.7</ele>
        <time>2022-09-01T09:51:09+02:00</time>
      </trkpt>
      <trkpt lat="44.23195" lon="0.78284">
        <ele>160.2</ele>
        <time>2022-09-01T09:51:20+02:00</time>
      </trkpt>
      <trkpt lat="44.23181" lon="0.78284">
        <ele>160.3</ele>
        <time>2022-09-01T09:51:30+02:00</time>
      </trkpt>
      <trkpt lat="44.23167" lon="0.78284">
        <ele>160.6</ele>
        <time>2022-09-01T09:51:43+02:00</time>
      </trkpt>
      <trkpt lat="44.23152" lon="0.78284">
        <ele>160.7</ele>
        <time>2022-09-01T09:51:54+02:00</time>
      </trkpt>
      <trkpt lat="44.23137" lon="0.78283">
        <ele>160.9</ele>
        <time>2022-09-01T09:52:05+02:00</time>
      </trkpt>
      <trkpt lat="44.23123" lon="0.78282">
        <ele>161.5</ele>
        <time>2022-09-01T09:52:17+02:00</time>
      </trkpt>
      <trkpt lat="44.23108" lon="0.78285">
        <ele>162.3</ele>
        <time>2022-09-01T09:52:29+02:00</time>
      </trkpt>
      <trkpt lat="44.23093" lon="0.78283">
        <ele>163.8</ele>
        <time>2022-09-01T09:52:42+02:00</time>
      </trkpt>
      <trkpt lat="44.23081" lon="0.78275">
        <ele>165.5</ele>
        <time>2022-09-01T09:52:56+02:00</time>
      </trkpt>
      <trkpt lat="44.23086" lon="0.78238">
        <ele>166</ele>
        <time>2022-09-01T09:57:21+02:00</time>
      </trkpt>
      <trkpt lat="44.23088" lon="0.78218">
        <ele>166.4</ele>
        <time>2022-09-01T09:57:34+02:00</time>
      </trkpt>
      <trkpt lat="44.23089" lon="0.78199">
        <ele>167.5</ele>
        <time>2022-09-01T09:57:47+02:00</time>
      </trkpt>
      <trkpt lat="44.23092" lon="0.78179">
        <ele>167.3</ele>
        <time>2022-09-01T09:58:00+02:00</time>
      </trkpt>
      <trkpt lat="44.23094" lon="0.7816">
        <ele>167.3</ele>
        <time>2022-09-01T09:58:11+02:00</time>
      </trkpt>
      <trkpt lat="44.23098" lon="0.7814">
        <ele>167.3</ele>
        <time>2022-09-01T09:58:23+02:00</time>
      </trkpt>
      <trkpt lat="44.23106" lon="0.78123">
        <ele>167.4</ele>
        <time>2022-09-01T09:58:35+02:00</time>
      </trkpt>
      <trkpt lat="44.23115" lon="0.78108">
        <ele>167.8</ele>
        <time>2022-09-01T09:58:47+02:00</time>
      </trkpt>
      <trkpt lat="44.23124" lon="0.78093">
        <ele>168</ele>
        <time>2022-09-01T09:58:57+02:00</time>
      </trkpt>
      <trkpt lat="44.23135" lon="0.78079">
        <ele>168.3</ele>
        <time>2022-09-01T09:59:08+02:00</time>
      </trkpt>
      <trkpt lat="44.23145" lon="0.78064">
        <ele>168.9</ele>
        <time>2022-09-01T09:59:19+02:00</time>
      </trkpt>
      <trkpt lat="44.23152" lon="0.78048">
        <ele>169.7</ele>
        <time>2022-09-01T09:59:30+02:00</time>
      </trkpt>
      <trkpt lat="44.23158" lon="0.7803">
        <ele>170.6</ele>
        <time>2022-09-01T09:59:42+02:00</time>
      </trkpt>
      <trkpt lat="44.23165" lon="0.78012">
        <ele>170.9</ele>
        <time>2022-09-01T09:59:54+02:00</time>
      </trkpt>
      <trkpt lat="44.2317" lon="0.77993">
        <ele>171.3</ele>
        <time>2022-09-01T10:00:06+02:00</time>
      </trkpt>
      <trkpt lat="44.23175" lon="0.77976">
        <ele>171.7</ele>
        <time>2022-09-01T10:00:17+02:00</time>
      </trkpt>
      <trkpt lat="44.23181" lon="0.77957">
        <ele>172</ele>
        <time>2022-09-01T10:00:29+02:00</time>
      </trkpt>
      <trkpt lat="44.23185" lon="0.77938">
        <ele>172.3</ele>
        <time>2022-09-01T10:00:40+02:00</time>
      </trkpt>
      <trkpt lat="44.23191" lon="0.77921">
        <ele>172.2</ele>
        <time>2022-09-01T10:00:51+02:00</time>
      </trkpt>
      <trkpt lat="44.23195" lon="0.77902">
        <ele>173</ele>
        <time>2022-09-01T10:01:02+02:00</time>
      </trkpt>
      <trkpt lat="44.23204" lon="0.77886">
        <ele>173.1</ele>
        <time>2022-09-01T10:01:17+02:00</time>
      </trkpt>
      <trkpt lat="44.23211" lon="0.77869">
        <ele>172.6</ele>
        <time>2022-09-01T10:01:28+02:00</time>
      </trkpt>
      <trkpt lat="44.23218" lon="0.77852">
        <ele>171.9</ele>
        <time>2022-09-01T10:01:38+02:00</time>
      </trkpt>
      <trkpt lat="44.23228" lon="0.7784">
        <ele>171.2</ele>
        <time>2022-09-01T10:01:48+02:00</time>
      </trkpt>
      <trkpt lat="44.23234" lon="0.77821">
        <ele>171.2</ele>
        <time>2022-09-01T10:02:00+02:00</time>
      </trkpt>
      <trkpt lat="44.23243" lon="0.77806">
        <ele>170.3</ele>
        <time>2022-09-01T10:02:11+02:00</time>
      </trkpt>
      <trkpt lat="44.23247" lon="0.77788">
        <ele>170.2</ele>
        <time>2022-09-01T10:02:23+02:00</time>
      </trkpt>
      <trkpt lat="44.23254" lon="0.77772">
        <ele>169.9</ele>
        <time>2022-09-01T10:02:37+02:00</time>
      </trkpt>
      <trkpt lat="44.23267" lon="0.77739">
        <ele>170.2</ele>
        <time>2022-09-01T10:02:53+02:00</time>
      </trkpt>
      <trkpt lat="44.23278" lon="0.77726">
        <ele>169.8</ele>
        <time>2022-09-01T10:03:02+02:00</time>
      </trkpt>
      <trkpt lat="44.23288" lon="0.77712">
        <ele>169.5</ele>
        <time>2022-09-01T10:03:15+02:00</time>
      </trkpt>
      <trkpt lat="44.23294" lon="0.77695">
        <ele>169.2</ele>
        <time>2022-09-01T10:03:25+02:00</time>
      </trkpt>
      <trkpt lat="44.233" lon="0.77676">
        <ele>169.1</ele>
        <time>2022-09-01T10:03:37+02:00</time>
      </trkpt>
      <trkpt lat="44.2331" lon="0.77664">
        <ele>168.8</ele>
        <time>2022-09-01T10:03:51+02:00</time>
      </trkpt>
      <trkpt lat="44.23323" lon="0.77654">
        <ele>168.1</ele>
        <time>2022-09-01T10:04:03+02:00</time>
      </trkpt>
      <trkpt lat="44.23337" lon="0.77648">
        <ele>167.1</ele>
        <time>2022-09-01T10:04:14+02:00</time>
      </trkpt>
      <trkpt lat="44.23351" lon="0.77646">
        <ele>166</ele>
        <time>2022-09-01T10:04:26+02:00</time>
      </trkpt>
      <trkpt lat="44.23365" lon="0.77645">
        <ele>165</ele>
        <time>2022-09-01T10:04:38+02:00</time>
      </trkpt>
      <trkpt lat="44.23379" lon="0.77642">
        <ele>163.9</ele>
        <time>2022-09-01T10:04:49+02:00</time>
      </trkpt>
      <trkpt lat="44.23394" lon="0.77638">
        <ele>162.9</ele>
        <time>2022-09-01T10:05:02+02:00</time>
      </trkpt>
      <trkpt lat="44.23408" lon="0.77636">
        <ele>162.4</ele>
        <time>2022-09-01T10:05:14+02:00</time>
      </trkpt>
      <trkpt lat="44.23422" lon="0.77633">
        <ele>162</ele>
        <time>2022-09-01T10:05:27+02:00</time>
      </trkpt>
      <trkpt lat="44.23436" lon="0.7763">
        <ele>161.6</ele>
        <time>2022-09-01T10:05:37+02:00</time>
      </trkpt>
      <trkpt lat="44.2345" lon="0.77625">
        <ele>161.4</ele>
        <time>2022-09-01T10:05:49+02:00</time>
      </trkpt>
      <trkpt lat="44.23464" lon="0.77622">
        <ele>161.2</ele>
        <time>2022-09-01T10:06:01+02:00</time>
      </trkpt>
      <trkpt lat="44.23478" lon="0.77625">
        <ele>160.8</ele>
        <time>2022-09-01T10:06:19+02:00</time>
      </trkpt>
      <trkpt lat="44.23492" lon="0.77619">
        <ele>160</ele>
        <time>2022-09-01T10:06:29+02:00</time>
      </trkpt>
      <trkpt lat="44.23506" lon="0.77615">
        <ele>159.3</ele>
        <time>2022-09-01T10:06:41+02:00</time>
      </trkpt>
      <trkpt lat="44.23519" lon="0.77611">
        <ele>159</ele>
        <time>2022-09-01T10:06:53+02:00</time>
      </trkpt>
      <trkpt lat="44.23533" lon="0.77603">
        <ele>159.3</ele>
        <time>2022-09-01T10:07:07+02:00</time>
      </trkpt>
      <trkpt lat="44.23543" lon="0.77589">
        <ele>159.6</ele>
        <time>2022-09-01T10:07:18+02:00</time>
      </trkpt>
      <trkpt lat="44.23549" lon="0.77572">
        <ele>159.3</ele>
        <time>2022-09-01T10:07:31+02:00</time>
      </trkpt>
      <trkpt lat="44.23557" lon="0.77555">
        <ele>159</ele>
        <time>2022-09-01T10:07:43+02:00</time>
      </trkpt>
      <trkpt lat="44.23565" lon="0.77537">
        <ele>158.5</ele>
        <time>2022-09-01T10:07:55+02:00</time>
      </trkpt>
      <trkpt lat="44.23557" lon="0.77554">
        <ele>159</ele>
        <time>2022-09-01T10:08:26+02:00</time>
      </trkpt>
      <trkpt lat="44.23547" lon="0.77569">
        <ele>159</ele>
        <time>2022-09-01T10:08:37+02:00</time>
      </trkpt>
      <trkpt lat="44.23539" lon="0.77585">
        <ele>159.4</ele>
        <time>2022-09-01T10:08:47+02:00</time>
      </trkpt>
      <trkpt lat="44.23529" lon="0.77599">
        <ele>159.1</ele>
        <time>2022-09-01T10:08:58+02:00</time>
      </trkpt>
      <trkpt lat="44.23541" lon="0.77609">
        <ele>159.9</ele>
        <time>2022-09-01T10:09:56+02:00</time>
      </trkpt>
      <trkpt lat="44.23556" lon="0.77614">
        <ele>161.2</ele>
        <time>2022-09-01T10:10:21+02:00</time>
      </trkpt>
      <trkpt lat="44.23569" lon="0.77614">
        <ele>162.2</ele>
        <time>2022-09-01T10:10:33+02:00</time>
      </trkpt>
      <trkpt lat="44.23583" lon="0.77618">
        <ele>163.5</ele>
        <time>2022-09-01T10:10:43+02:00</time>
      </trkpt>
      <trkpt lat="44.23597" lon="0.77619">
        <ele>164.4</ele>
        <time>2022-09-01T10:10:55+02:00</time>
      </trkpt>
      <trkpt lat="44.2361" lon="0.77623">
        <ele>165.3</ele>
        <time>2022-09-01T10:11:04+02:00</time>
      </trkpt>
      <trkpt lat="44.23624" lon="0.77629">
        <ele>165.7</ele>
        <time>2022-09-01T10:11:18+02:00</time>
      </trkpt>
      <trkpt lat="44.23638" lon="0.77633">
        <ele>165.8</ele>
        <time>2022-09-01T10:11:29+02:00</time>
      </trkpt>
      <trkpt lat="44.23651" lon="0.77639">
        <ele>166</ele>
        <time>2022-09-01T10:11:43+02:00</time>
      </trkpt>
      <trkpt lat="44.23664" lon="0.77644">
        <ele>166.2</ele>
        <time>2022-09-01T10:11:53+02:00</time>
      </trkpt>
      <trkpt lat="44.23677" lon="0.77651">
        <ele>166.5</ele>
        <time>2022-09-01T10:12:04+02:00</time>
      </trkpt>
      <trkpt lat="44.2369" lon="0.77659">
        <ele>166.7</ele>
        <time>2022-09-01T10:12:16+02:00</time>
      </trkpt>
      <trkpt lat="44.23704" lon="0.77665">
        <ele>167.3</ele>
        <time>2022-09-01T10:12:28+02:00</time>
      </trkpt>
      <trkpt lat="44.23717" lon="0.77672">
        <ele>168</ele>
        <time>2022-09-01T10:12:39+02:00</time>
      </trkpt>
      <trkpt lat="44.23728" lon="0.77684">
        <ele>168.6</ele>
        <time>2022-09-01T10:12:52+02:00</time>
      </trkpt>
      <trkpt lat="44.23741" lon="0.77694">
        <ele>168.3</ele>
        <time>2022-09-01T10:13:04+02:00</time>
      </trkpt>
      <trkpt lat="44.23753" lon="0.77706">
        <ele>167.9</ele>
        <time>2022-09-01T10:13:18+02:00</time>
      </trkpt>
      <trkpt lat="44.23766" lon="0.77714">
        <ele>167.4</ele>
        <time>2022-09-01T10:13:30+02:00</time>
      </trkpt>
      <trkpt lat="44.2378" lon="0.77721">
        <ele>166.9</ele>
        <time>2022-09-01T10:13:42+02:00</time>
      </trkpt>
      <trkpt lat="44.23792" lon="0.77729">
        <ele>166.6</ele>
        <time>2022-09-01T10:13:54+02:00</time>
      </trkpt>
      <trkpt lat="44.23806" lon="0.77733">
        <ele>166.4</ele>
        <time>2022-09-01T10:14:05+02:00</time>
      </trkpt>
      <trkpt lat="44.2382" lon="0.77734">
        <ele>166.4</ele>
        <time>2022-09-01T10:14:16+02:00</time>
      </trkpt>
      <trkpt lat="44.23834" lon="0.7773">
        <ele>166.3</ele>
        <time>2022-09-01T10:14:29+02:00</time>
      </trkpt>
      <trkpt lat="44.23848" lon="0.77726">
        <ele>166.1</ele>
        <time>2022-09-01T10:14:40+02:00</time>
      </trkpt>
      <trkpt lat="44.23862" lon="0.77721">
        <ele>166</ele>
        <time>2022-09-01T10:14:54+02:00</time>
      </trkpt>
      <trkpt lat="44.23876" lon="0.77719">
        <ele>165.9</ele>
        <time>2022-09-01T10:15:08+02:00</time>
      </trkpt>
      <trkpt lat="44.2389" lon="0.77714">
        <ele>165.7</ele>
        <time>2022-09-01T10:15:23+02:00</time>
      </trkpt>
      <trkpt lat="44.23904" lon="0.77713">
        <ele>165.7</ele>
        <time>2022-09-01T10:15:34+02:00</time>
      </trkpt>
      <trkpt lat="44.23919" lon="0.77711">
        <ele>165.5</ele>
        <time>2022-09-01T10:15:46+02:00</time>
      </trkpt>
      <trkpt lat="44.23932" lon="0.77707">
        <ele>165.2</ele>
        <time>2022-09-01T10:15:56+02:00</time>
      </trkpt>
      <trkpt lat="44.23946" lon="0.77703">
        <ele>165</ele>
        <time>2022-09-01T10:16:07+02:00</time>
      </trkpt>
      <trkpt lat="44.23959" lon="0.77701">
        <ele>165.5</ele>
        <time>2022-09-01T10:16:21+02:00</time>
      </trkpt>
      <trkpt lat="44.23974" lon="0.77699">
        <ele>166.1</ele>
        <time>2022-09-01T10:16:34+02:00</time>
      </trkpt>
      <trkpt lat="44.23988" lon="0.77698">
        <ele>166.6</ele>
        <time>2022-09-01T10:16:44+02:00</time>
      </trkpt>
      <trkpt lat="44.24002" lon="0.77695">
        <ele>167.1</ele>
        <time>2022-09-01T10:16:57+02:00</time>
      </trkpt>
      <trkpt lat="44.24011" lon="0.7771">
        <ele>167.4</ele>
        <time>2022-09-01T10:17:12+02:00</time>
      </trkpt>
      <trkpt lat="44.24011" lon="0.77729">
        <ele>167.3</ele>
        <time>2022-09-01T10:17:24+02:00</time>
      </trkpt>
      <trkpt lat="44.24008" lon="0.77749">
        <ele>166.6</ele>
        <time>2022-09-01T10:17:36+02:00</time>
      </trkpt>
      <trkpt lat="44.24011" lon="0.77769">
        <ele>166.1</ele>
        <time>2022-09-01T10:17:48+02:00</time>
      </trkpt>
      <trkpt lat="44.24012" lon="0.77788">
        <ele>165.7</ele>
        <time>2022-09-01T10:18:00+02:00</time>
      </trkpt>
      <trkpt lat="44.24012" lon="0.77808">
        <ele>165.4</ele>
        <time>2022-09-01T10:18:12+02:00</time>
      </trkpt>
      <trkpt lat="44.24013" lon="0.77827">
        <ele>165</ele>
        <time>2022-09-01T10:18:23+02:00</time>
      </trkpt>
      <trkpt lat="44.24014" lon="0.77847">
        <ele>164.8</ele>
        <time>2022-09-01T10:18:37+02:00</time>
      </trkpt>
      <trkpt lat="44.24017" lon="0.77867">
        <ele>164.7</ele>
        <time>2022-09-01T10:18:47+02:00</time>
      </trkpt>
      <trkpt lat="44.24016" lon="0.77887">
        <ele>165</ele>
        <time>2022-09-01T10:18:58+02:00</time>
      </trkpt>
      <trkpt lat="44.24016" lon="0.77907">
        <ele>165.4</ele>
        <time>2022-09-01T10:19:08+02:00</time>
      </trkpt>
      <trkpt lat="44.24017" lon="0.77926">
        <ele>165.7</ele>
        <time>2022-09-01T10:19:18+02:00</time>
      </trkpt>
      <trkpt lat="44.24015" lon="0.77946">
        <ele>166</ele>
        <time>2022-09-01T10:19:31+02:00</time>
      </trkpt>
      <trkpt lat="44.24014" lon="0.77966">
        <ele>166</ele>
        <time>2022-09-01T10:19:41+02:00</time>
      </trkpt>
      <trkpt lat="44.24011" lon="0.77986">
        <ele>166</ele>
        <time>2022-09-01T10:19:54+02:00</time>
      </trkpt>
      <trkpt lat="44.24012" lon="0.78006">
        <ele>166</ele>
        <time>2022-09-01T10:20:05+02:00</time>
      </trkpt>
      <trkpt lat="44.24011" lon="0.78026">
        <ele>166</ele>
        <time>2022-09-01T10:20:15+02:00</time>
      </trkpt>
      <trkpt lat="44.24016" lon="0.78044">
        <ele>166</ele>
        <time>2022-09-01T10:20:24+02:00</time>
      </trkpt>
      <trkpt lat="44.24021" lon="0.78062">
        <ele>166</ele>
        <time>2022-09-01T10:20:34+02:00</time>
      </trkpt>
      <trkpt lat="44.24028" lon="0.78079">
        <ele>166</ele>
        <time>2022-09-01T10:20:43+02:00</time>
      </trkpt>
      <trkpt lat="44.24038" lon="0.78094">
        <ele>166</ele>
        <time>2022-09-01T10:20:53+02:00</time>
      </trkpt>
      <trkpt lat="44.24047" lon="0.78109">
        <ele>166.2</ele>
        <time>2022-09-01T10:21:05+02:00</time>
      </trkpt>
      <trkpt lat="44.24057" lon="0.78122">
        <ele>166.8</ele>
        <time>2022-09-01T10:21:16+02:00</time>
      </trkpt>
      <trkpt lat="44.24068" lon="0.78136">
        <ele>167.8</ele>
        <time>2022-09-01T10:21:29+02:00</time>
      </trkpt>
      <trkpt lat="44.24079" lon="0.78148">
        <ele>168.3</ele>
        <time>2022-09-01T10:21:40+02:00</time>
      </trkpt>
      <trkpt lat="44.24089" lon="0.78161">
        <ele>169.1</ele>
        <time>2022-09-01T10:21:52+02:00</time>
      </trkpt>
      <trkpt lat="44.24099" lon="0.78172">
        <ele>170.1</ele>
        <time>2022-09-01T10:22:03+02:00</time>
      </trkpt>
      <trkpt lat="44.2411" lon="0.78186">
        <ele>170.9</ele>
        <time>2022-09-01T10:22:16+02:00</time>
      </trkpt>
      <trkpt lat="44.24121" lon="0.78198">
        <ele>172.1</ele>
        <time>2022-09-01T10:22:28+02:00</time>
      </trkpt>
      <trkpt lat="44.2413" lon="0.78213">
        <ele>173.5</ele>
        <time>2022-09-01T10:22:40+02:00</time>
      </trkpt>
      <trkpt lat="44.24139" lon="0.78228">
        <ele>175.2</ele>
        <time>2022-09-01T10:22:53+02:00</time>
      </trkpt>
      <trkpt lat="44.24149" lon="0.78243">
        <ele>176.4</ele>
        <time>2022-09-01T10:23:03+02:00</time>
      </trkpt>
      <trkpt lat="44.24158" lon="0.78257">
        <ele>177.9</ele>
        <time>2022-09-01T10:23:14+02:00</time>
      </trkpt>
      <trkpt lat="44.24167" lon="0.78273">
        <ele>179.7</ele>
        <time>2022-09-01T10:23:27+02:00</time>
      </trkpt>
      <trkpt lat="44.24174" lon="0.78291">
        <ele>181.2</ele>
        <time>2022-09-01T10:23:39+02:00</time>
      </trkpt>
      <trkpt lat="44.2418" lon="0.78309">
        <ele>182.6</ele>
        <time>2022-09-01T10:23:52+02:00</time>
      </trkpt>
      <trkpt lat="44.24182" lon="0.78328">
        <ele>183.3</ele>
        <time>2022-09-01T10:24:06+02:00</time>
      </trkpt>
      <trkpt lat="44.24187" lon="0.78346">
        <ele>184.5</ele>
        <time>2022-09-01T10:24:20+02:00</time>
      </trkpt>
      <trkpt lat="44.24192" lon="0.78364">
        <ele>185.9</ele>
        <time>2022-09-01T10:24:33+02:00</time>
      </trkpt>
      <trkpt lat="44.24197" lon="0.78383">
        <ele>186.9</ele>
        <time>2022-09-01T10:24:47+02:00</time>
      </trkpt>
      <trkpt lat="44.242" lon="0.78402">
        <ele>187.9</ele>
        <time>2022-09-01T10:24:59+02:00</time>
      </trkpt>
      <trkpt lat="44.24206" lon="0.78419">
        <ele>188.9</ele>
        <time>2022-09-01T10:25:17+02:00</time>
      </trkpt>
      <trkpt lat="44.24214" lon="0.78435">
        <ele>190.1</ele>
        <time>2022-09-01T10:25:35+02:00</time>
      </trkpt>
      <trkpt lat="44.24219" lon="0.78453">
        <ele>191.1</ele>
        <time>2022-09-01T10:25:47+02:00</time>
      </trkpt>
      <trkpt lat="44.24225" lon="0.78471">
        <ele>192.2</ele>
        <time>2022-09-01T10:25:59+02:00</time>
      </trkpt>
      <trkpt lat="44.24234" lon="0.78488">
        <ele>193.7</ele>
        <time>2022-09-01T10:26:08+02:00</time>
      </trkpt>
      <trkpt lat="44.24242" lon="0.78503">
        <ele>194.8</ele>
        <time>2022-09-01T10:26:24+02:00</time>
      </trkpt>
      <trkpt lat="44.24247" lon="0.78521">
        <ele>195.6</ele>
        <time>2022-09-01T10:26:36+02:00</time>
      </trkpt>
      <trkpt lat="44.24255" lon="0.78538">
        <ele>196.1</ele>
        <time>2022-09-01T10:27:00+02:00</time>
      </trkpt>
      <trkpt lat="44.24262" lon="0.78555">
        <ele>196.8</ele>
        <time>2022-09-01T10:27:14+02:00</time>
      </trkpt>
      <trkpt lat="44.24273" lon="0.78567">
        <ele>197.7</ele>
        <time>2022-09-01T10:27:27+02:00</time>
      </trkpt>
      <trkpt lat="44.24281" lon="0.78585">
        <ele>198</ele>
        <time>2022-09-01T10:27:39+02:00</time>
      </trkpt>
      <trkpt lat="44.24288" lon="0.78602">
        <ele>197.8</ele>
        <time>2022-09-01T10:27:50+02:00</time>
      </trkpt>
      <trkpt lat="44.24294" lon="0.7862">
        <ele>197.4</ele>
        <time>2022-09-01T10:28:02+02:00</time>
      </trkpt>
      <trkpt lat="44.24301" lon="0.78637">
        <ele>196.7</ele>
        <time>2022-09-01T10:28:13+02:00</time>
      </trkpt>
      <trkpt lat="44.24315" lon="0.78646">
        <ele>194.6</ele>
        <time>2022-09-01T10:28:30+02:00</time>
      </trkpt>
      <trkpt lat="44.24326" lon="0.78634">
        <ele>194.8</ele>
        <time>2022-09-01T10:28:41+02:00</time>
      </trkpt>
      <trkpt lat="44.24337" lon="0.78624">
        <ele>195.3</ele>
        <time>2022-09-01T10:31:26+02:00</time>
      </trkpt>
      <trkpt lat="44.2435" lon="0.78615">
        <ele>195.5</ele>
        <time>2022-09-01T10:32:55+02:00</time>
      </trkpt>
      <trkpt lat="44.2436" lon="0.78602">
        <ele>195.8</ele>
        <time>2022-09-01T10:33:07+02:00</time>
      </trkpt>
      <trkpt lat="44.24368" lon="0.78583">
        <ele>196.7</ele>
        <time>2022-09-01T10:33:22+02:00</time>
      </trkpt>
      <trkpt lat="44.24381" lon="0.78573">
        <ele>196.2</ele>
        <time>2022-09-01T10:33:29+02:00</time>
      </trkpt>
      <trkpt lat="44.24394" lon="0.78573">
        <ele>195.8</ele>
        <time>2022-09-01T10:33:41+02:00</time>
      </trkpt>
      <trkpt lat="44.24405" lon="0.78585">
        <ele>195.3</ele>
        <time>2022-09-01T10:33:55+02:00</time>
      </trkpt>
      <trkpt lat="44.24418" lon="0.78595">
        <ele>194.2</ele>
        <time>2022-09-01T10:34:06+02:00</time>
      </trkpt>
      <trkpt lat="44.24429" lon="0.78605">
        <ele>193.7</ele>
        <time>2022-09-01T10:34:18+02:00</time>
      </trkpt>
      <trkpt lat="44.24442" lon="0.78614">
        <ele>193.8</ele>
        <time>2022-09-01T10:34:29+02:00</time>
      </trkpt>
      <trkpt lat="44.24454" lon="0.78624">
        <ele>194.1</ele>
        <time>2022-09-01T10:34:41+02:00</time>
      </trkpt>
      <trkpt lat="44.24468" lon="0.78629">
        <ele>194.7</ele>
        <time>2022-09-01T10:34:52+02:00</time>
      </trkpt>
      <trkpt lat="44.24479" lon="0.7864">
        <ele>194.9</ele>
        <time>2022-09-01T10:35:04+02:00</time>
      </trkpt>
      <trkpt lat="44.24491" lon="0.78649">
        <ele>194.1</ele>
        <time>2022-09-01T10:35:15+02:00</time>
      </trkpt>
      <trkpt lat="44.24503" lon="0.78658">
        <ele>193.9</ele>
        <time>2022-09-01T10:35:28+02:00</time>
      </trkpt>
      <trkpt lat="44.24516" lon="0.78666">
        <ele>194.7</ele>
        <time>2022-09-01T10:35:37+02:00</time>
      </trkpt>
      <trkpt lat="44.24526" lon="0.78681">
        <ele>195.2</ele>
        <time>2022-09-01T10:35:49+02:00</time>
      </trkpt>
      <trkpt lat="44.24535" lon="0.78696">
        <ele>195.4</ele>
        <time>2022-09-01T10:35:59+02:00</time>
      </trkpt>
      <trkpt lat="44.24542" lon="0.78714">
        <ele>195</ele>
        <time>2022-09-01T10:36:11+02:00</time>
      </trkpt>
      <trkpt lat="44.24551" lon="0.78729">
        <ele>195.6</ele>
        <time>2022-09-01T10:36:24+02:00</time>
      </trkpt>
      <trkpt lat="44.2456" lon="0.78744">
        <ele>194.8</ele>
        <time>2022-09-01T10:36:36+02:00</time>
      </trkpt>
      <trkpt lat="44.24571" lon="0.78757">
        <ele>193.5</ele>
        <time>2022-09-01T10:36:49+02:00</time>
      </trkpt>
      <trkpt lat="44.24583" lon="0.78768">
        <ele>191.7</ele>
        <time>2022-09-01T10:37:01+02:00</time>
      </trkpt>
      <trkpt lat="44.24595" lon="0.78777">
        <ele>190.6</ele>
        <time>2022-09-01T10:37:12+02:00</time>
      </trkpt>
      <trkpt lat="44.24607" lon="0.78786">
        <ele>189.9</ele>
        <time>2022-09-01T10:37:23+02:00</time>
      </trkpt>
      <trkpt lat="44.24618" lon="0.78799">
        <ele>189.1</ele>
        <time>2022-09-01T10:37:35+02:00</time>
      </trkpt>
      <trkpt lat="44.24627" lon="0.78813">
        <ele>188.8</ele>
        <time>2022-09-01T10:37:45+02:00</time>
      </trkpt>
      <trkpt lat="44.24637" lon="0.78828">
        <ele>189.7</ele>
        <time>2022-09-01T10:37:57+02:00</time>
      </trkpt>
      <trkpt lat="44.24645" lon="0.78843">
        <ele>190</ele>
        <time>2022-09-01T10:38:08+02:00</time>
      </trkpt>
      <trkpt lat="44.24654" lon="0.78858">
        <ele>190.6</ele>
        <time>2022-09-01T10:38:20+02:00</time>
      </trkpt>
      <trkpt lat="44.24662" lon="0.78873">
        <ele>191.5</ele>
        <time>2022-09-01T10:38:31+02:00</time>
      </trkpt>
      <trkpt lat="44.24668" lon="0.7889">
        <ele>192</ele>
        <time>2022-09-01T10:38:48+02:00</time>
      </trkpt>
      <trkpt lat="44.24678" lon="0.78904">
        <ele>192.4</ele>
        <time>2022-09-01T10:38:58+02:00</time>
      </trkpt>
      <trkpt lat="44.24687" lon="0.7892">
        <ele>192.6</ele>
        <time>2022-09-01T10:39:07+02:00</time>
      </trkpt>
      <trkpt lat="44.24695" lon="0.78935">
        <ele>192.3</ele>
        <time>2022-09-01T10:39:22+02:00</time>
      </trkpt>
      <trkpt lat="44.24703" lon="0.78952">
        <ele>191.7</ele>
        <time>2022-09-01T10:39:33+02:00</time>
      </trkpt>
      <trkpt lat="44.2471" lon="0.7897">
        <ele>191.5</ele>
        <time>2022-09-01T10:39:46+02:00</time>
      </trkpt>
      <trkpt lat="44.24715" lon="0.78988">
        <ele>191.1</ele>
        <time>2022-09-01T10:39:59+02:00</time>
      </trkpt>
      <trkpt lat="44.24719" lon="0.79006">
        <ele>191</ele>
        <time>2022-09-01T10:40:13+02:00</time>
      </trkpt>
      <trkpt lat="44.24725" lon="0.79023">
        <ele>190.8</ele>
        <time>2022-09-01T10:40:24+02:00</time>
      </trkpt>
      <trkpt lat="44.24732" lon="0.7904">
        <ele>190</ele>
        <time>2022-09-01T10:40:37+02:00</time>
      </trkpt>
      <trkpt lat="44.2474" lon="0.79056">
        <ele>189.3</ele>
        <time>2022-09-01T10:40:49+02:00</time>
      </trkpt>
      <trkpt lat="44.24757" lon="0.79088">
        <ele>188.6</ele>
        <time>2022-09-01T10:41:13+02:00</time>
      </trkpt>
      <trkpt lat="44.24775" lon="0.79116">
        <ele>188</ele>
        <time>2022-09-01T10:41:37+02:00</time>
      </trkpt>
      <trkpt lat="44.24783" lon="0.79132">
        <ele>187.9</ele>
        <time>2022-09-01T10:41:52+02:00</time>
      </trkpt>
      <trkpt lat="44.24789" lon="0.79149">
        <ele>187.9</ele>
        <time>2022-09-01T10:42:02+02:00</time>
      </trkpt>
      <trkpt lat="44.24793" lon="0.79168">
        <ele>188.1</ele>
        <time>2022-09-01T10:42:13+02:00</time>
      </trkpt>
      <trkpt lat="44.24795" lon="0.79188">
        <ele>188.7</ele>
        <time>2022-09-01T10:42:27+02:00</time>
      </trkpt>
      <trkpt lat="44.24796" lon="0.79207">
        <ele>189.7</ele>
        <time>2022-09-01T10:42:37+02:00</time>
      </trkpt>
      <trkpt lat="44.24796" lon="0.79227">
        <ele>190.9</ele>
        <time>2022-09-01T10:42:50+02:00</time>
      </trkpt>
      <trkpt lat="44.24795" lon="0.79248">
        <ele>191.8</ele>
        <time>2022-09-01T10:43:02+02:00</time>
      </trkpt>
      <trkpt lat="44.24792" lon="0.79267">
        <ele>193</ele>
        <time>2022-09-01T10:43:12+02:00</time>
      </trkpt>
      <trkpt lat="44.24785" lon="0.79284">
        <ele>193.9</ele>
        <time>2022-09-01T10:43:27+02:00</time>
      </trkpt>
      <trkpt lat="44.24776" lon="0.79299">
        <ele>194.4</ele>
        <time>2022-09-01T10:43:39+02:00</time>
      </trkpt>
      <trkpt lat="44.24764" lon="0.79311">
        <ele>194.2</ele>
        <time>2022-09-01T10:43:50+02:00</time>
      </trkpt>
      <trkpt lat="44.24754" lon="0.79322">
        <ele>193.9</ele>
        <time>2022-09-01T10:44:03+02:00</time>
      </trkpt>
      <trkpt lat="44.24741" lon="0.79332">
        <ele>193</ele>
        <time>2022-09-01T10:44:21+02:00</time>
      </trkpt>
      <trkpt lat="44.24731" lon="0.79346">
        <ele>192.7</ele>
        <time>2022-09-01T10:44:32+02:00</time>
      </trkpt>
      <trkpt lat="44.24719" lon="0.79357">
        <ele>192.5</ele>
        <time>2022-09-01T10:44:44+02:00</time>
      </trkpt>
      <trkpt lat="44.24708" lon="0.79368">
        <ele>192.2</ele>
        <time>2022-09-01T10:44:56+02:00</time>
      </trkpt>
      <trkpt lat="44.24699" lon="0.79382">
        <ele>192.1</ele>
        <time>2022-09-01T10:45:08+02:00</time>
      </trkpt>
      <trkpt lat="44.24689" lon="0.79395">
        <ele>192</ele>
        <time>2022-09-01T10:45:20+02:00</time>
      </trkpt>
      <trkpt lat="44.24677" lon="0.79406">
        <ele>192</ele>
        <time>2022-09-01T10:45:32+02:00</time>
      </trkpt>
      <trkpt lat="44.24666" lon="0.79416">
        <ele>191.9</ele>
        <time>2022-09-01T10:45:48+02:00</time>
      </trkpt>
      <trkpt lat="44.24651" lon="0.79417">
        <ele>190.4</ele>
        <time>2022-09-01T10:46:09+02:00</time>
      </trkpt>
      <trkpt lat="44.24642" lon="0.79433">
        <ele>190.5</ele>
        <time>2022-09-01T10:46:26+02:00</time>
      </trkpt>
      <trkpt lat="44.24655" lon="0.79414">
        <ele>190.6</ele>
        <time>2022-09-01T10:46:38+02:00</time>
      </trkpt>
      <trkpt lat="44.24655" lon="0.79436">
        <ele>192.1</ele>
        <time>2022-09-01T10:47:20+02:00</time>
      </trkpt>
      <trkpt lat="44.24661" lon="0.79413">
        <ele>191.1</ele>
        <time>2022-09-01T10:47:35+02:00</time>
      </trkpt>
      <trkpt lat="44.24649" lon="0.79438">
        <ele>191.6</ele>
        <time>2022-09-01T10:47:48+02:00</time>
      </trkpt>
      <trkpt lat="44.24659" lon="0.79457">
        <ele>192.7</ele>
        <time>2022-09-01T10:48:02+02:00</time>
      </trkpt>
      <trkpt lat="44.24667" lon="0.79473">
        <ele>193</ele>
        <time>2022-09-01T10:48:14+02:00</time>
      </trkpt>
      <trkpt lat="44.24676" lon="0.79487">
        <ele>192.5</ele>
        <time>2022-09-01T10:48:26+02:00</time>
      </trkpt>
      <trkpt lat="44.24686" lon="0.79502">
        <ele>191.9</ele>
        <time>2022-09-01T10:48:38+02:00</time>
      </trkpt>
      <trkpt lat="44.24698" lon="0.79511">
        <ele>191.2</ele>
        <time>2022-09-01T10:48:54+02:00</time>
      </trkpt>
      <trkpt lat="44.24712" lon="0.7952">
        <ele>190.6</ele>
        <time>2022-09-01T10:49:10+02:00</time>
      </trkpt>
      <trkpt lat="44.24726" lon="0.79526">
        <ele>190.2</ele>
        <time>2022-09-01T10:49:22+02:00</time>
      </trkpt>
      <trkpt lat="44.24738" lon="0.79535">
        <ele>189.8</ele>
        <time>2022-09-01T10:49:35+02:00</time>
      </trkpt>
      <trkpt lat="44.2475" lon="0.79544">
        <ele>189.8</ele>
        <time>2022-09-01T10:49:45+02:00</time>
      </trkpt>
      <trkpt lat="44.24763" lon="0.79553">
        <ele>190.1</ele>
        <time>2022-09-01T10:50:00+02:00</time>
      </trkpt>
      <trkpt lat="44.24777" lon="0.79559">
        <ele>190.8</ele>
        <time>2022-09-01T10:50:10+02:00</time>
      </trkpt>
      <trkpt lat="44.24789" lon="0.79569">
        <ele>190.5</ele>
        <time>2022-09-01T10:50:21+02:00</time>
      </trkpt>
      <trkpt lat="44.24799" lon="0.79582">
        <ele>189.3</ele>
        <time>2022-09-01T10:50:35+02:00</time>
      </trkpt>
      <trkpt lat="44.24799" lon="0.79601">
        <ele>188.6</ele>
        <time>2022-09-01T10:50:49+02:00</time>
      </trkpt>
      <trkpt lat="44.24798" lon="0.79621">
        <ele>187.5</ele>
        <time>2022-09-01T10:51:01+02:00</time>
      </trkpt>
      <trkpt lat="44.24795" lon="0.79641">
        <ele>186.3</ele>
        <time>2022-09-01T10:51:13+02:00</time>
      </trkpt>
      <trkpt lat="44.24792" lon="0.79661">
        <ele>186.1</ele>
        <time>2022-09-01T10:51:27+02:00</time>
      </trkpt>
      <trkpt lat="44.24791" lon="0.79681">
        <ele>185.5</ele>
        <time>2022-09-01T10:51:38+02:00</time>
      </trkpt>
      <trkpt lat="44.24788" lon="0.797">
        <ele>185</ele>
        <time>2022-09-01T10:51:51+02:00</time>
      </trkpt>
      <trkpt lat="44.24787" lon="0.7972">
        <ele>184.2</ele>
        <time>2022-09-01T10:52:03+02:00</time>
      </trkpt>
      <trkpt lat="44.24782" lon="0.79738">
        <ele>183.4</ele>
        <time>2022-09-01T10:52:14+02:00</time>
      </trkpt>
      <trkpt lat="44.24778" lon="0.79758">
        <ele>182.5</ele>
        <time>2022-09-01T10:52:26+02:00</time>
      </trkpt>
      <trkpt lat="44.24772" lon="0.79777">
        <ele>181.7</ele>
        <time>2022-09-01T10:52:37+02:00</time>
      </trkpt>
      <trkpt lat="44.24769" lon="0.79796">
        <ele>180.8</ele>
        <time>2022-09-01T10:52:49+02:00</time>
      </trkpt>
      <trkpt lat="44.24766" lon="0.79815">
        <ele>180.2</ele>
        <time>2022-09-01T10:53:01+02:00</time>
      </trkpt>
      <trkpt lat="44.24762" lon="0.79834">
        <ele>179.9</ele>
        <time>2022-09-01T10:53:12+02:00</time>
      </trkpt>
      <trkpt lat="44.24758" lon="0.79853">
        <ele>179.1</ele>
        <time>2022-09-01T10:53:23+02:00</time>
      </trkpt>
      <trkpt lat="44.24753" lon="0.79872">
        <ele>178.4</ele>
        <time>2022-09-01T10:53:34+02:00</time>
      </trkpt>
      <trkpt lat="44.24743" lon="0.79909">
        <ele>176.1</ele>
        <time>2022-09-01T10:53:57+02:00</time>
      </trkpt>
      <trkpt lat="44.24747" lon="0.79928">
        <ele>173.9</ele>
        <time>2022-09-01T10:54:09+02:00</time>
      </trkpt>
      <trkpt lat="44.24749" lon="0.79948">
        <ele>172.3</ele>
        <time>2022-09-01T10:54:20+02:00</time>
      </trkpt>
      <trkpt lat="44.24752" lon="0.79969">
        <ele>172.6</ele>
        <time>2022-09-01T10:54:32+02:00</time>
      </trkpt>
      <trkpt lat="44.24757" lon="0.79987">
        <ele>171.5</ele>
        <time>2022-09-01T10:54:45+02:00</time>
      </trkpt>
      <trkpt lat="44.2476" lon="0.80006">
        <ele>170.1</ele>
        <time>2022-09-01T10:54:57+02:00</time>
      </trkpt>
      <trkpt lat="44.24767" lon="0.80023">
        <ele>168.1</ele>
        <time>2022-09-01T10:55:09+02:00</time>
      </trkpt>
      <trkpt lat="44.24759" lon="0.80038">
        <ele>167.9</ele>
        <time>2022-09-01T10:55:42+02:00</time>
      </trkpt>
      <trkpt lat="44.24748" lon="0.80027">
        <ele>169.3</ele>
        <time>2022-09-01T10:55:58+02:00</time>
      </trkpt>
      <trkpt lat="44.24735" lon="0.80021">
        <ele>170.8</ele>
        <time>2022-09-01T10:56:13+02:00</time>
      </trkpt>
      <trkpt lat="44.24721" lon="0.8002">
        <ele>172</ele>
        <time>2022-09-01T10:56:24+02:00</time>
      </trkpt>
      <trkpt lat="44.24708" lon="0.80011">
        <ele>174</ele>
        <time>2022-09-01T10:56:37+02:00</time>
      </trkpt>
      <trkpt lat="44.24694" lon="0.80011">
        <ele>175</ele>
        <time>2022-09-01T10:56:50+02:00</time>
      </trkpt>
      <trkpt lat="44.2468" lon="0.80009">
        <ele>176</ele>
        <time>2022-09-01T10:57:02+02:00</time>
      </trkpt>
      <trkpt lat="44.24667" lon="0.8">
        <ele>178</ele>
        <time>2022-09-01T10:57:14+02:00</time>
      </trkpt>
      <trkpt lat="44.24653" lon="0.79999">
        <ele>178.1</ele>
        <time>2022-09-01T10:57:29+02:00</time>
      </trkpt>
      <trkpt lat="44.24639" lon="0.79994">
        <ele>178.2</ele>
        <time>2022-09-01T10:57:49+02:00</time>
      </trkpt>
      <trkpt lat="44.24625" lon="0.79991">
        <ele>177.7</ele>
        <time>2022-09-01T10:57:58+02:00</time>
      </trkpt>
      <trkpt lat="44.24612" lon="0.79993">
        <ele>177</ele>
        <time>2022-09-01T10:58:07+02:00</time>
      </trkpt>
      <trkpt lat="44.24597" lon="0.79991">
        <ele>176.1</ele>
        <time>2022-09-01T10:58:19+02:00</time>
      </trkpt>
      <trkpt lat="44.24586" lon="0.79979">
        <ele>175.9</ele>
        <time>2022-09-01T10:58:30+02:00</time>
      </trkpt>
      <trkpt lat="44.24572" lon="0.79982">
        <ele>175.3</ele>
        <time>2022-09-01T10:58:37+02:00</time>
      </trkpt>
      <trkpt lat="44.24559" lon="0.7998">
        <ele>174.8</ele>
        <time>2022-09-01T10:58:44+02:00</time>
      </trkpt>
      <trkpt lat="44.24545" lon="0.79974">
        <ele>174.1</ele>
        <time>2022-09-01T10:58:55+02:00</time>
      </trkpt>
      <trkpt lat="44.24532" lon="0.79967">
        <ele>173.3</ele>
        <time>2022-09-01T10:59:05+02:00</time>
      </trkpt>
      <trkpt lat="44.2452" lon="0.79958">
        <ele>172.4</ele>
        <time>2022-09-01T10:59:14+02:00</time>
      </trkpt>
      <trkpt lat="44.24507" lon="0.79952">
        <ele>171.8</ele>
        <time>2022-09-01T10:59:24+02:00</time>
      </trkpt>
      <trkpt lat="44.24494" lon="0.79943">
        <ele>171.5</ele>
        <time>2022-09-01T10:59:36+02:00</time>
      </trkpt>
      <trkpt lat="44.24481" lon="0.79935">
        <ele>171.1</ele>
        <time>2022-09-01T10:59:47+02:00</time>
      </trkpt>
      <trkpt lat="44.24468" lon="0.79928">
        <ele>170.9</ele>
        <time>2022-09-01T10:59:57+02:00</time>
      </trkpt>
      <trkpt lat="44.24456" lon="0.79918">
        <ele>170.8</ele>
        <time>2022-09-01T11:00:07+02:00</time>
      </trkpt>
      <trkpt lat="44.24443" lon="0.79912">
        <ele>170</ele>
        <time>2022-09-01T11:00:18+02:00</time>
      </trkpt>
      <trkpt lat="44.2443" lon="0.79904">
        <ele>169.7</ele>
        <time>2022-09-01T11:00:32+02:00</time>
      </trkpt>
      <trkpt lat="44.24419" lon="0.79894">
        <ele>169.8</ele>
        <time>2022-09-01T11:00:42+02:00</time>
      </trkpt>
      <trkpt lat="44.24406" lon="0.79887">
        <ele>169.3</ele>
        <time>2022-09-01T11:00:53+02:00</time>
      </trkpt>
      <trkpt lat="44.24394" lon="0.79898">
        <ele>167.7</ele>
        <time>2022-09-01T11:01:04+02:00</time>
      </trkpt>
      <trkpt lat="44.24389" lon="0.79916">
        <ele>166.1</ele>
        <time>2022-09-01T11:01:14+02:00</time>
      </trkpt>
      <trkpt lat="44.24384" lon="0.79934">
        <ele>164.5</ele>
        <time>2022-09-01T11:01:25+02:00</time>
      </trkpt>
      <trkpt lat="44.24377" lon="0.79951">
        <ele>162.5</ele>
        <time>2022-09-01T11:01:38+02:00</time>
      </trkpt>
      <trkpt lat="44.24365" lon="0.79963">
        <ele>159.4</ele>
        <time>2022-09-01T11:01:58+02:00</time>
      </trkpt>
      <trkpt lat="44.24351" lon="0.79965">
        <ele>159.4</ele>
        <time>2022-09-01T11:02:09+02:00</time>
      </trkpt>
      <trkpt lat="44.24338" lon="0.79974">
        <ele>159.1</ele>
        <time>2022-09-01T11:02:19+02:00</time>
      </trkpt>
      <trkpt lat="44.24327" lon="0.79986">
        <ele>157.7</ele>
        <time>2022-09-01T11:02:32+02:00</time>
      </trkpt>
      <trkpt lat="44.24317" lon="0.79999">
        <ele>156.8</ele>
        <time>2022-09-01T11:02:53+02:00</time>
      </trkpt>
      <trkpt lat="44.24307" lon="0.80013">
        <ele>155</ele>
        <time>2022-09-01T11:03:09+02:00</time>
      </trkpt>
      <trkpt lat="44.24302" lon="0.8003">
        <ele>151.6</ele>
        <time>2022-09-01T11:03:26+02:00</time>
      </trkpt>
      <trkpt lat="44.24295" lon="0.80046">
        <ele>149.8</ele>
        <time>2022-09-01T11:03:37+02:00</time>
      </trkpt>
      <trkpt lat="44.24282" lon="0.80058">
        <ele>150</ele>
        <time>2022-09-01T11:03:47+02:00</time>
      </trkpt>
      <trkpt lat="44.2427" lon="0.8007">
        <ele>147.7</ele>
        <time>2022-09-01T11:04:03+02:00</time>
      </trkpt>
      <trkpt lat="44.24259" lon="0.80083">
        <ele>143.7</ele>
        <time>2022-09-01T11:04:16+02:00</time>
      </trkpt>
      <trkpt lat="44.2426" lon="0.80104">
        <ele>138.6</ele>
        <time>2022-09-01T11:04:38+02:00</time>
      </trkpt>
      <trkpt lat="44.24248" lon="0.80114">
        <ele>136</ele>
        <time>2022-09-01T11:05:04+02:00</time>
      </trkpt>
      <trkpt lat="44.24235" lon="0.80105">
        <ele>138.3</ele>
        <time>2022-09-01T11:05:14+02:00</time>
      </trkpt>
      <trkpt lat="44.24221" lon="0.80106">
        <ele>138.1</ele>
        <time>2022-09-01T11:05:25+02:00</time>
      </trkpt>
      <trkpt lat="44.24207" lon="0.80111">
        <ele>137.7</ele>
        <time>2022-09-01T11:05:38+02:00</time>
      </trkpt>
      <trkpt lat="44.24193" lon="0.80113">
        <ele>137.5</ele>
        <time>2022-09-01T11:05:50+02:00</time>
      </trkpt>
      <trkpt lat="44.24179" lon="0.80114">
        <ele>137.5</ele>
        <time>2022-09-01T11:06:03+02:00</time>
      </trkpt>
      <trkpt lat="44.24164" lon="0.80117">
        <ele>137.5</ele>
        <time>2022-09-01T11:06:14+02:00</time>
      </trkpt>
      <trkpt lat="44.2415" lon="0.80113">
        <ele>140.7</ele>
        <time>2022-09-01T11:06:32+02:00</time>
      </trkpt>
      <trkpt lat="44.24136" lon="0.80114">
        <ele>142.8</ele>
        <time>2022-09-01T11:06:44+02:00</time>
      </trkpt>
      <trkpt lat="44.24121" lon="0.80114">
        <ele>145.1</ele>
        <time>2022-09-01T11:06:56+02:00</time>
      </trkpt>
      <trkpt lat="44.24107" lon="0.80112">
        <ele>146.4</ele>
        <time>2022-09-01T11:11:08+02:00</time>
      </trkpt>
      <trkpt lat="44.24109" lon="0.80132">
        <ele>143.3</ele>
        <time>2022-09-01T11:12:21+02:00</time>
      </trkpt>
      <trkpt lat="44.24107" lon="0.80153">
        <ele>139.7</ele>
        <time>2022-09-01T11:12:44+02:00</time>
      </trkpt>
      <trkpt lat="44.24104" lon="0.80171">
        <ele>136.1</ele>
        <time>2022-09-01T11:13:08+02:00</time>
      </trkpt>
      <trkpt lat="44.24096" lon="0.80187">
        <ele>132.3</ele>
        <time>2022-09-01T11:13:30+02:00</time>
      </trkpt>
      <trkpt lat="44.24083" lon="0.80192">
        <ele>132.5</ele>
        <time>2022-09-01T11:13:49+02:00</time>
      </trkpt>
      <trkpt lat="44.24069" lon="0.80195">
        <ele>128.7</ele>
        <time>2022-09-01T11:14:00+02:00</time>
      </trkpt>
      <trkpt lat="44.24056" lon="0.80189">
        <ele>127.5</ele>
        <time>2022-09-01T11:14:14+02:00</time>
      </trkpt>
      <trkpt lat="44.24042" lon="0.80189">
        <ele>123.6</ele>
        <time>2022-09-01T11:14:28+02:00</time>
      </trkpt>
      <trkpt lat="44.24028" lon="0.80197">
        <ele>118.8</ele>
        <time>2022-09-01T11:14:43+02:00</time>
      </trkpt>
      <trkpt lat="44.24014" lon="0.80194">
        <ele>116.7</ele>
        <time>2022-09-01T11:14:56+02:00</time>
      </trkpt>
      <trkpt lat="44.24002" lon="0.80183">
        <ele>115.6</ele>
        <time>2022-09-01T11:15:08+02:00</time>
      </trkpt>
      <trkpt lat="44.2399" lon="0.80171">
        <ele>115.4</ele>
        <time>2022-09-01T11:15:21+02:00</time>
      </trkpt>
      <trkpt lat="44.23983" lon="0.80154">
        <ele>117</ele>
        <time>2022-09-01T11:15:38+02:00</time>
      </trkpt>
      <trkpt lat="44.23974" lon="0.8014">
        <ele>118.1</ele>
        <time>2022-09-01T11:15:59+02:00</time>
      </trkpt>
      <trkpt lat="44.23962" lon="0.80125">
        <ele>118.8</ele>
        <time>2022-09-01T11:16:22+02:00</time>
      </trkpt>
      <trkpt lat="44.23957" lon="0.80108">
        <ele>121.2</ele>
        <time>2022-09-01T11:16:38+02:00</time>
      </trkpt>
      <trkpt lat="44.23951" lon="0.8009">
        <ele>124.8</ele>
        <time>2022-09-01T11:16:56+02:00</time>
      </trkpt>
      <trkpt lat="44.23938" lon="0.80083">
        <ele>123.4</ele>
        <time>2022-09-01T11:17:11+02:00</time>
      </trkpt>
      <trkpt lat="44.23923" lon="0.80079">
        <ele>120.6</ele>
        <time>2022-09-01T11:17:22+02:00</time>
      </trkpt>
      <trkpt lat="44.23909" lon="0.80079">
        <ele>118.3</ele>
        <time>2022-09-01T11:17:31+02:00</time>
      </trkpt>
      <trkpt lat="44.23896" lon="0.80076">
        <ele>117.7</ele>
        <time>2022-09-01T11:17:41+02:00</time>
      </trkpt>
      <trkpt lat="44.23881" lon="0.80076">
        <ele>117</ele>
        <time>2022-09-01T11:17:51+02:00</time>
      </trkpt>
      <trkpt lat="44.23866" lon="0.80074">
        <ele>117.7</ele>
        <time>2022-09-01T11:18:00+02:00</time>
      </trkpt>
      <trkpt lat="44.23852" lon="0.80071">
        <ele>118.7</ele>
        <time>2022-09-01T11:18:09+02:00</time>
      </trkpt>
      <trkpt lat="44.23838" lon="0.80067">
        <ele>119.7</ele>
        <time>2022-09-01T11:18:20+02:00</time>
      </trkpt>
      <trkpt lat="44.23827" lon="0.80055">
        <ele>121.8</ele>
        <time>2022-09-01T11:18:32+02:00</time>
      </trkpt>
      <trkpt lat="44.23814" lon="0.80048">
        <ele>121.8</ele>
        <time>2022-09-01T11:18:44+02:00</time>
      </trkpt>
      <trkpt lat="44.238" lon="0.80045">
        <ele>120.9</ele>
        <time>2022-09-01T11:18:54+02:00</time>
      </trkpt>
      <trkpt lat="44.23787" lon="0.80038">
        <ele>122.8</ele>
        <time>2022-09-01T11:19:07+02:00</time>
      </trkpt>
      <trkpt lat="44.23776" lon="0.80027">
        <ele>125.4</ele>
        <time>2022-09-01T11:19:19+02:00</time>
      </trkpt>
      <trkpt lat="44.23761" lon="0.80028">
        <ele>125.6</ele>
        <time>2022-09-01T11:19:30+02:00</time>
      </trkpt>
      <trkpt lat="44.23747" lon="0.8003">
        <ele>126</ele>
        <time>2022-09-01T11:19:44+02:00</time>
      </trkpt>
      <trkpt lat="44.23734" lon="0.80031">
        <ele>128.1</ele>
        <time>2022-09-01T11:19:54+02:00</time>
      </trkpt>
      <trkpt lat="44.2372" lon="0.80034">
        <ele>129.4</ele>
        <time>2022-09-01T11:20:04+02:00</time>
      </trkpt>
      <trkpt lat="44.23706" lon="0.80028">
        <ele>129.1</ele>
        <time>2022-09-01T11:20:18+02:00</time>
      </trkpt>
      <trkpt lat="44.23692" lon="0.80024">
        <ele>128.7</ele>
        <time>2022-09-01T11:20:29+02:00</time>
      </trkpt>
      <trkpt lat="44.23679" lon="0.80018">
        <ele>128.8</ele>
        <time>2022-09-01T11:20:40+02:00</time>
      </trkpt>
      <trkpt lat="44.23665" lon="0.80015">
        <ele>128</ele>
        <time>2022-09-01T11:20:49+02:00</time>
      </trkpt>
      <trkpt lat="44.23652" lon="0.80014">
        <ele>126.9</ele>
        <time>2022-09-01T11:21:01+02:00</time>
      </trkpt>
      <trkpt lat="44.23637" lon="0.80015">
        <ele>125</ele>
        <time>2022-09-01T11:21:13+02:00</time>
      </trkpt>
      <trkpt lat="44.23622" lon="0.80017">
        <ele>123.4</ele>
        <time>2022-09-01T11:21:25+02:00</time>
      </trkpt>
      <trkpt lat="44.23609" lon="0.80016">
        <ele>122.4</ele>
        <time>2022-09-01T11:21:36+02:00</time>
      </trkpt>
      <trkpt lat="44.23595" lon="0.80014">
        <ele>121.6</ele>
        <time>2022-09-01T11:21:46+02:00</time>
      </trkpt>
      <trkpt lat="44.23581" lon="0.80012">
        <ele>120.4</ele>
        <time>2022-09-01T11:21:57+02:00</time>
      </trkpt>
      <trkpt lat="44.23566" lon="0.80009">
        <ele>119.3</ele>
        <time>2022-09-01T11:22:10+02:00</time>
      </trkpt>
      <trkpt lat="44.23553" lon="0.80008">
        <ele>117.7</ele>
        <time>2022-09-01T11:22:21+02:00</time>
      </trkpt>
      <trkpt lat="44.23539" lon="0.80001">
        <ele>118.3</ele>
        <time>2022-09-01T11:22:31+02:00</time>
      </trkpt>
      <trkpt lat="44.23525" lon="0.79996">
        <ele>117.9</ele>
        <time>2022-09-01T11:22:43+02:00</time>
      </trkpt>
      <trkpt lat="44.23511" lon="0.79999">
        <ele>116.1</ele>
        <time>2022-09-01T11:22:54+02:00</time>
      </trkpt>
      <trkpt lat="44.23496" lon="0.79997">
        <ele>115.5</ele>
        <time>2022-09-01T11:23:07+02:00</time>
      </trkpt>
      <trkpt lat="44.23482" lon="0.79993">
        <ele>115.7</ele>
        <time>2022-09-01T11:23:19+02:00</time>
      </trkpt>
      <trkpt lat="44.23467" lon="0.79994">
        <ele>114.8</ele>
        <time>2022-09-01T11:23:29+02:00</time>
      </trkpt>
      <trkpt lat="44.23453" lon="0.79995">
        <ele>113.7</ele>
        <time>2022-09-01T11:23:38+02:00</time>
      </trkpt>
      <trkpt lat="44.23438" lon="0.79998">
        <ele>112</ele>
        <time>2022-09-01T11:23:50+02:00</time>
      </trkpt>
      <trkpt lat="44.23425" lon="0.79998">
        <ele>111</ele>
        <time>2022-09-01T11:24:01+02:00</time>
      </trkpt>
      <trkpt lat="44.23411" lon="0.79994">
        <ele>110.2</ele>
        <time>2022-09-01T11:24:13+02:00</time>
      </trkpt>
      <trkpt lat="44.23398" lon="0.79987">
        <ele>110.2</ele>
        <time>2022-09-01T11:24:27+02:00</time>
      </trkpt>
      <trkpt lat="44.23384" lon="0.79977">
        <ele>110.8</ele>
        <time>2022-09-01T11:30:11+02:00</time>
      </trkpt>
      <trkpt lat="44.23369" lon="0.79976">
        <ele>110.5</ele>
        <time>2022-09-01T11:30:19+02:00</time>
      </trkpt>
      <trkpt lat="44.23355" lon="0.79971">
        <ele>111.1</ele>
        <time>2022-09-01T11:30:31+02:00</time>
      </trkpt>
      <trkpt lat="44.23342" lon="0.79976">
        <ele>109.9</ele>
        <time>2022-09-01T11:30:46+02:00</time>
      </trkpt>
      <trkpt lat="44.23328" lon="0.79982">
        <ele>108.1</ele>
        <time>2022-09-01T11:30:58+02:00</time>
      </trkpt>
      <trkpt lat="44.23314" lon="0.79987">
        <ele>107.2</ele>
        <time>2022-09-01T11:31:11+02:00</time>
      </trkpt>
      <trkpt lat="44.233" lon="0.79991">
        <ele>106.7</ele>
        <time>2022-09-01T11:31:21+02:00</time>
      </trkpt>
      <trkpt lat="44.23287" lon="0.79998">
        <ele>106</ele>
        <time>2022-09-01T11:31:31+02:00</time>
      </trkpt>
      <trkpt lat="44.23273" lon="0.80003">
        <ele>105.2</ele>
        <time>2022-09-01T11:31:44+02:00</time>
      </trkpt>
      <trkpt lat="44.2326" lon="0.80009">
        <ele>103.9</ele>
        <time>2022-09-01T11:31:53+02:00</time>
      </trkpt>
      <trkpt lat="44.23246" lon="0.80013">
        <ele>103.1</ele>
        <time>2022-09-01T11:32:06+02:00</time>
      </trkpt>
      <trkpt lat="44.23232" lon="0.80013">
        <ele>102.5</ele>
        <time>2022-09-01T11:32:18+02:00</time>
      </trkpt>
      <trkpt lat="44.23218" lon="0.80018">
        <ele>100.4</ele>
        <time>2022-09-01T11:32:33+02:00</time>
      </trkpt>
      <trkpt lat="44.23204" lon="0.80016">
        <ele>98.9</ele>
        <time>2022-09-01T11:32:46+02:00</time>
      </trkpt>
      <trkpt lat="44.23191" lon="0.80013">
        <ele>97.8</ele>
        <time>2022-09-01T11:33:01+02:00</time>
      </trkpt>
      <trkpt lat="44.23177" lon="0.80005">
        <ele>97.2</ele>
        <time>2022-09-01T11:33:12+02:00</time>
      </trkpt>
      <trkpt lat="44.23163" lon="0.80007">
        <ele>94.7</ele>
        <time>2022-09-01T11:33:20+02:00</time>
      </trkpt>
      <trkpt lat="44.23148" lon="0.80008">
        <ele>93.6</ele>
        <time>2022-09-01T11:33:29+02:00</time>
      </trkpt>
      <trkpt lat="44.23134" lon="0.8001">
        <ele>92.1</ele>
        <time>2022-09-01T11:33:38+02:00</time>
      </trkpt>
      <trkpt lat="44.23119" lon="0.80007">
        <ele>90.9</ele>
        <time>2022-09-01T11:33:48+02:00</time>
      </trkpt>
      <trkpt lat="44.23105" lon="0.80008">
        <ele>89.3</ele>
        <time>2022-09-01T11:33:58+02:00</time>
      </trkpt>
      <trkpt lat="44.23092" lon="0.80003">
        <ele>89.1</ele>
        <time>2022-09-01T11:34:11+02:00</time>
      </trkpt>
      <trkpt lat="44.23078" lon="0.8">
        <ele>88.4</ele>
        <time>2022-09-01T11:34:22+02:00</time>
      </trkpt>
      <trkpt lat="44.23064" lon="0.79999">
        <ele>87</ele>
        <time>2022-09-01T11:34:33+02:00</time>
      </trkpt>
      <trkpt lat="44.2305" lon="0.79998">
        <ele>85.8</ele>
        <time>2022-09-01T11:34:43+02:00</time>
      </trkpt>
      <trkpt lat="44.23036" lon="0.79996">
        <ele>85.1</ele>
        <time>2022-09-01T11:34:58+02:00</time>
      </trkpt>
      <trkpt lat="44.23022" lon="0.79996">
        <ele>84.1</ele>
        <time>2022-09-01T11:35:10+02:00</time>
      </trkpt>
      <trkpt lat="44.2301" lon="0.79987">
        <ele>84.4</ele>
        <time>2022-09-01T11:35:21+02:00</time>
      </trkpt>
      <trkpt lat="44.22996" lon="0.79978">
        <ele>84.5</ele>
        <time>2022-09-01T11:35:31+02:00</time>
      </trkpt>
      <trkpt lat="44.22983" lon="0.79972">
        <ele>83.1</ele>
        <time>2022-09-01T11:35:39+02:00</time>
      </trkpt>
      <trkpt lat="44.2297" lon="0.79969">
        <ele>81.2</ele>
        <time>2022-09-01T11:35:47+02:00</time>
      </trkpt>
      <trkpt lat="44.22955" lon="0.79964">
        <ele>79.9</ele>
        <time>2022-09-01T11:36:00+02:00</time>
      </trkpt>
      <trkpt lat="44.22943" lon="0.79955">
        <ele>79.3</ele>
        <time>2022-09-01T11:36:12+02:00</time>
      </trkpt>
      <trkpt lat="44.22934" lon="0.7994">
        <ele>79.9</ele>
        <time>2022-09-01T11:36:27+02:00</time>
      </trkpt>
      <trkpt lat="44.22922" lon="0.7993">
        <ele>79.4</ele>
        <time>2022-09-01T11:36:37+02:00</time>
      </trkpt>
      <trkpt lat="44.2291" lon="0.79922">
        <ele>79.2</ele>
        <time>2022-09-01T11:36:47+02:00</time>
      </trkpt>
      <trkpt lat="44.22897" lon="0.79914">
        <ele>78.8</ele>
        <time>2022-09-01T11:36:56+02:00</time>
      </trkpt>
      <trkpt lat="44.22885" lon="0.79904">
        <ele>79.4</ele>
        <time>2022-09-01T11:37:07+02:00</time>
      </trkpt>
      <trkpt lat="44.22862" lon="0.79882">
        <ele>81</ele>
        <time>2022-09-01T11:37:31+02:00</time>
      </trkpt>
      <trkpt lat="44.2285" lon="0.79872">
        <ele>80.4</ele>
        <time>2022-09-01T11:37:43+02:00</time>
      </trkpt>
      <trkpt lat="44.2284" lon="0.79859">
        <ele>80.3</ele>
        <time>2022-09-01T11:37:55+02:00</time>
      </trkpt>
      <trkpt lat="44.22828" lon="0.79849">
        <ele>78.7</ele>
        <time>2022-09-01T11:38:01+02:00</time>
      </trkpt>
      <trkpt lat="44.22814" lon="0.79853">
        <ele>76.8</ele>
        <time>2022-09-01T11:39:20+02:00</time>
      </trkpt>
      <trkpt lat="44.22804" lon="0.79864">
        <ele>75.5</ele>
        <time>2022-09-01T11:40:25+02:00</time>
      </trkpt>
      <trkpt lat="44.22789" lon="0.79869">
        <ele>73.8</ele>
        <time>2022-09-01T11:40:43+02:00</time>
      </trkpt>
      <trkpt lat="44.22775" lon="0.79864">
        <ele>72.8</ele>
        <time>2022-09-01T11:40:54+02:00</time>
      </trkpt>
      <trkpt lat="44.22762" lon="0.79857">
        <ele>72.5</ele>
        <time>2022-09-01T11:41:05+02:00</time>
      </trkpt>
      <trkpt lat="44.22749" lon="0.79849">
        <ele>72.5</ele>
        <time>2022-09-01T11:41:19+02:00</time>
      </trkpt>
      <trkpt lat="44.22736" lon="0.79841">
        <ele>72.7</ele>
        <time>2022-09-01T11:41:32+02:00</time>
      </trkpt>
      <trkpt lat="44.22731" lon="0.79859">
        <ele>72.1</ele>
        <time>2022-09-01T11:42:36+02:00</time>
      </trkpt>
      <trkpt lat="44.22735" lon="0.79878">
        <ele>71.4</ele>
        <time>2022-09-01T11:42:48+02:00</time>
      </trkpt>
      <trkpt lat="44.22729" lon="0.79895">
        <ele>71</ele>
        <time>2022-09-01T11:43:07+02:00</time>
      </trkpt>
    </trkseg>
  </trk>
</gpx>